Accueil
METAR-TAF:

METAR-TAF

Aéroports :

Cognac, France

Base aérienne 709 Cognac-Châteaubernard

latitude: 45-40N, longitude: 000-19W, altitude: 30 m

Observation

Le bulletin a été fait il y a 17 minutes, à 01:30 UTC
Vent calme
Température 15°C
Humidité 82%
Pression 1023 hPa
Visibilité 10 km ou plus
pas de nuages en-dessous de 1500 mètres et pas de cumulonimbus.

METAR: LFBG 240130Z AUTO 00000KT CAVOK 15/12 Q1023

Heure: 03:47 (01:47 UTC)

Prévision

Le bulletin a été fait il y a 17 heures et 47 minutes, à 08:00 UTC
Prévision valable du 23 à 09 UTC au 24 à 09 UTC
Vent 8 kt de ouest
Visibilité 10 km ou plus
Nuages fragmentés à une hauteur de 2500 ft

TAF: LFBG 230800Z 2309/2409 26008KT 9999 BKN025

Observations et prévisions météorologiques de plus de 4000 aéroports (messages METAR et TAF).

Les stations disponibles sont représentées par des disques jaunes et rouges sur la carte.

Passer la souris dessus pour voir le nom de la station.

Cliquer dessus pour voir les observations et prévisions météorologiques.

Pour changer de carte: cliquez sur les boutons verts avec une croix noire pour zoomer, sur le bouton vert avec un tiret pour effectuer un zoom arrière, ou sur les flèches vertes pour les cartes adjacentes.


METAR-TAF: